createdAt,value
2023-08-22T00:00:33.524Z,19.40
2023-08-22T00:03:20.670Z,19.40
2023-08-22T00:06:07.555Z,19.30
2023-08-22T00:08:54.323Z,19.30
2023-08-22T00:11:41.054Z,19.30
2023-08-22T00:14:27.919Z,19.20
2023-08-22T00:17:14.786Z,19.20
2023-08-22T00:20:01.894Z,19.10
2023-08-22T00:22:48.657Z,19.10
2023-08-22T00:25:35.448Z,19.10
2023-08-22T00:28:22.855Z,19.00
2023-08-22T00:31:09.681Z,19.00
2023-08-22T00:33:56.506Z,19.00
2023-08-22T00:36:43.335Z,19.00
2023-08-22T00:39:30.168Z,19.00
2023-08-22T00:42:16.898Z,19.00
2023-08-22T00:45:04.649Z,19.00
2023-08-22T01:01:09.247Z,18.90
2023-08-22T01:03:56.442Z,18.80
2023-08-22T01:06:58.230Z,18.80
2023-08-22T01:10:05.391Z,18.70
2023-08-22T01:13:21.586Z,18.70
2023-08-22T01:16:08.428Z,18.70
2023-08-22T01:18:55.507Z,18.70
2023-08-22T01:21:54.776Z,18.70
2023-08-22T01:24:41.592Z,18.70
2023-08-22T01:27:29.219Z,18.70
2023-08-22T01:30:19.986Z,18.70
2023-08-22T01:33:11.972Z,18.70
2023-08-22T01:35:58.830Z,18.70
2023-08-22T01:38:45.775Z,18.60
2023-08-22T01:41:32.593Z,18.60
2023-08-22T01:44:19.364Z,18.50
2023-08-22T01:47:06.406Z,18.50
2023-08-22T01:49:53.198Z,18.50
2023-08-22T01:52:40.068Z,18.50
2023-08-22T01:55:26.846Z,18.50
2023-08-22T01:58:15.372Z,18.50
2023-08-22T02:01:12.504Z,18.50
2023-08-22T02:04:04.853Z,18.40
2023-08-22T02:06:51.782Z,18.40
2023-08-22T02:09:38.641Z,18.40
2023-08-22T02:12:25.448Z,18.40
2023-08-22T02:15:12.361Z,18.40
2023-08-22T02:17:59.246Z,18.30
2023-08-22T02:20:46.157Z,18.30
2023-08-22T02:23:33.553Z,18.30
2023-08-22T02:26:20.529Z,18.30
2023-08-22T02:29:07.405Z,18.30
2023-08-22T02:31:54.310Z,18.20
2023-08-22T02:34:41.200Z,18.20
2023-08-22T02:37:28.034Z,18.20
2023-08-22T02:40:14.812Z,18.20
2023-08-22T02:43:01.670Z,18.10
2023-08-22T02:45:48.460Z,18.10
2023-08-22T02:48:35.351Z,18.00
2023-08-22T02:51:22.109Z,18.00
2023-08-22T02:54:08.920Z,18.00
2023-08-22T02:56:55.677Z,18.00
2023-08-22T02:59:42.519Z,17.90
2023-08-22T03:02:29.449Z,17.90
2023-08-22T03:05:16.387Z,18.00
2023-08-22T03:08:03.896Z,17.90
2023-08-22T03:10:50.736Z,17.90
2023-08-22T03:13:37.561Z,17.90
2023-08-22T03:16:24.391Z,17.90
2023-08-22T03:19:11.116Z,17.90
2023-08-22T03:21:57.961Z,17.90
2023-08-22T03:24:44.719Z,17.90
2023-08-22T03:27:31.583Z,17.90
2023-08-22T03:30:18.404Z,17.90
2023-08-22T03:33:05.437Z,17.90
2023-08-22T03:35:52.906Z,17.80
2023-08-22T03:38:39.917Z,17.80
2023-08-22T03:41:26.726Z,17.80
2023-08-22T03:44:14.913Z,17.80
2023-08-22T03:47:01.799Z,17.80
2023-08-22T03:49:48.871Z,17.80
2023-08-22T03:52:35.710Z,17.70
2023-08-22T03:55:22.567Z,17.70
2023-08-22T03:58:09.449Z,17.60
2023-08-22T04:01:06.609Z,17.60
2023-08-22T04:03:53.458Z,17.70
2023-08-22T04:06:40.166Z,17.70
2023-08-22T04:09:27.067Z,17.60
2023-08-22T04:12:13.849Z,17.60
2023-08-22T04:15:00.740Z,17.60
2023-08-22T04:17:49.994Z,17.60
2023-08-22T04:20:38.481Z,17.50
2023-08-22T04:23:25.291Z,17.50
2023-08-22T04:26:12.692Z,17.50
2023-08-22T04:28:59.846Z,17.50
2023-08-22T04:31:46.617Z,17.60
2023-08-22T04:34:33.401Z,17.50
2023-08-22T04:37:20.290Z,17.50
2023-08-22T04:40:07.533Z,17.50
2023-08-22T04:42:54.428Z,17.50
2023-08-22T04:45:41.411Z,17.60
2023-08-22T04:48:28.184Z,17.50
2023-08-22T04:51:15.486Z,17.60
2023-08-22T04:54:02.187Z,17.60
2023-08-22T04:56:49.050Z,17.60
2023-08-22T04:59:35.855Z,17.60
2023-08-22T05:02:23.254Z,17.70
2023-08-22T05:05:12.766Z,17.70
2023-08-22T05:07:59.662Z,17.80
2023-08-22T05:10:46.562Z,17.80
2023-08-22T05:13:33.381Z,17.90
2023-08-22T05:16:20.193Z,17.90
2023-08-22T05:19:07.256Z,18.00
2023-08-22T05:21:54.204Z,18.00
2023-08-22T05:24:41.039Z,18.10
2023-08-22T05:27:27.840Z,18.10
2023-08-22T05:30:14.748Z,18.20
2023-08-22T05:33:01.638Z,18.20
2023-08-22T05:35:48.425Z,18.30
2023-08-22T05:38:35.274Z,18.40
2023-08-22T05:41:21.989Z,18.50
2023-08-22T05:44:08.866Z,18.50
2023-08-22T05:46:55.631Z,18.50
2023-08-22T05:49:45.104Z,18.60
2023-08-22T05:52:31.960Z,18.70
2023-08-22T05:55:19.883Z,18.80
2023-08-22T05:58:06.649Z,18.80
2023-08-22T06:00:53.567Z,18.90
2023-08-22T06:03:42.978Z,19.00
2023-08-22T06:06:29.977Z,19.70
2023-08-22T06:09:17.055Z,19.20
2023-08-22T06:12:04.474Z,19.30
2023-08-22T06:14:51.193Z,19.40
2023-08-22T06:17:38.752Z,19.40
2023-08-22T06:20:25.761Z,19.50
2023-08-22T06:23:12.657Z,19.60
2023-08-22T06:25:59.494Z,19.70
2023-08-22T06:28:47.567Z,19.80
2023-08-22T06:31:34.404Z,19.90
2023-08-22T06:34:21.211Z,20.00
2023-08-22T06:37:08.193Z,20.10
2023-08-22T06:39:54.968Z,20.20
2023-08-22T06:42:42.878Z,20.30
2023-08-22T06:45:29.748Z,20.40
2023-08-22T06:48:30.803Z,20.60
2023-08-22T06:51:24.407Z,20.70
2023-08-22T06:54:11.403Z,20.70
2023-08-22T06:56:58.175Z,20.90
2023-08-22T06:59:45.164Z,21.00
2023-08-22T07:02:32.051Z,21.10
2023-08-22T07:05:19.256Z,21.20
2023-08-22T07:08:06.257Z,21.40
2023-08-22T07:10:53.139Z,21.50
2023-08-22T07:13:40.964Z,21.60
2023-08-22T07:16:27.802Z,21.70
2023-08-22T07:19:17.396Z,21.80
2023-08-22T07:22:11.464Z,22.00
2023-08-22T07:24:58.252Z,22.10
2023-08-22T07:27:45.455Z,22.20
2023-08-22T07:30:33.769Z,22.40
2023-08-22T07:33:20.705Z,22.50
2023-08-22T07:36:07.653Z,22.60
2023-08-22T07:38:54.652Z,22.70
2023-08-22T07:41:41.736Z,22.90
2023-08-22T07:44:28.496Z,23.00
2023-08-22T07:47:15.591Z,23.10
2023-08-22T07:50:02.506Z,23.30
2023-08-22T07:52:49.342Z,23.40
2023-08-22T07:55:36.409Z,23.60
2023-08-22T07:58:23.147Z,23.70
2023-08-22T08:01:12.629Z,23.80
2023-08-22T08:04:00.588Z,23.90
2023-08-22T08:06:48.180Z,24.00
2023-08-22T08:09:36.500Z,24.10
2023-08-22T08:12:23.900Z,24.20
2023-08-22T08:15:10.828Z,24.40
2023-08-22T08:17:59.607Z,24.50
2023-08-22T08:20:46.526Z,24.60
2023-08-22T08:23:33.461Z,24.70
2023-08-22T08:26:20.263Z,24.90
2023-08-22T08:29:07.130Z,25.00
2023-08-22T08:31:56.958Z,25.10
2023-08-22T08:34:43.773Z,25.20
2023-08-22T08:37:30.549Z,25.30
2023-08-22T08:40:17.534Z,25.40
2023-08-22T08:43:05.096Z,25.50
2023-08-22T08:45:52.106Z,25.60
2023-08-22T08:48:39.267Z,25.80
2023-08-22T08:51:26.162Z,25.80
2023-08-22T08:54:12.983Z,25.90
2023-08-22T08:57:00.368Z,26.00
2023-08-22T08:59:47.151Z,26.00
2023-08-22T09:02:34.175Z,26.10
2023-08-22T09:05:21.143Z,26.20
2023-08-22T09:08:18.378Z,26.20
2023-08-22T09:11:05.463Z,26.30
2023-08-22T09:13:56.730Z,26.40
2023-08-22T09:16:43.989Z,26.40
2023-08-22T09:19:34.358Z,26.40
2023-08-22T09:22:22.419Z,26.40
2023-08-22T09:25:09.526Z,26.50
2023-08-22T09:27:56.292Z,26.60
2023-08-22T09:30:48.376Z,26.70
2023-08-22T09:33:47.587Z,26.80
2023-08-22T09:36:34.465Z,26.90
2023-08-22T09:39:22.451Z,27.00
2023-08-22T09:42:09.302Z,27.00
2023-08-22T09:44:59.659Z,27.10
2023-08-22T09:47:46.942Z,27.20
2023-08-22T09:50:36.232Z,27.30
2023-08-22T09:53:23.126Z,27.40
2023-08-22T09:56:09.922Z,27.50
2023-08-22T09:58:56.876Z,27.50
2023-08-22T10:01:43.959Z,27.60
2023-08-22T10:04:30.886Z,27.70
2023-08-22T10:07:17.969Z,27.80
2023-08-22T10:10:06.194Z,27.80
2023-08-22T10:12:53.912Z,27.90
2023-08-22T10:15:41.083Z,27.90
2023-08-22T10:18:27.928Z,28.10
2023-08-22T10:21:15.171Z,28.20
2023-08-22T10:24:01.914Z,28.30
2023-08-22T10:27:06.583Z,28.40
2023-08-22T10:30:15.658Z,28.50
2023-08-22T10:33:28.674Z,28.60
2023-08-22T10:36:19.997Z,28.60
2023-08-22T10:39:08.137Z,28.70
2023-08-22T10:41:55.254Z,28.80
2023-08-22T10:45:00.611Z,28.80
2023-08-22T10:47:49.797Z,28.90
2023-08-22T10:50:36.706Z,28.90
2023-08-22T10:53:25.534Z,29.00
2023-08-22T10:56:24.431Z,29.10
2023-08-22T10:59:11.336Z,29.10
2023-08-22T11:01:58.107Z,29.10
2023-08-22T11:04:45.011Z,29.20
2023-08-22T11:07:32.616Z,29.20
2023-08-22T11:10:23.656Z,29.30
2023-08-22T11:13:10.698Z,29.40
2023-08-22T11:15:57.820Z,29.40
2023-08-22T11:18:47.180Z,29.40
2023-08-22T11:21:34.028Z,29.50
2023-08-22T11:24:20.801Z,29.50
2023-08-22T11:27:07.674Z,29.60
2023-08-22T11:29:54.561Z,29.70
2023-08-22T11:32:42.768Z,29.80
2023-08-22T11:35:29.529Z,29.80
2023-08-22T11:38:19.411Z,29.80
2023-08-22T11:41:06.196Z,29.80
2023-08-22T11:43:53.742Z,29.90
2023-08-22T11:46:41.757Z,30.00
2023-08-22T11:49:28.774Z,30.00
2023-08-22T11:52:15.517Z,30.00
2023-08-22T11:55:07.052Z,30.10
2023-08-22T11:58:02.237Z,30.10
2023-08-22T12:00:49.133Z,30.30
2023-08-22T12:03:45.387Z,30.30
2023-08-22T12:06:33.318Z,30.40
2023-08-22T12:09:20.114Z,30.40
2023-08-22T12:12:15.527Z,30.40
2023-08-22T12:15:02.538Z,30.60
2023-08-22T12:17:49.606Z,30.60
2023-08-22T12:20:38.683Z,30.70
2023-08-22T12:23:25.552Z,30.70
2023-08-22T12:26:12.364Z,30.70
2023-08-22T12:28:59.113Z,30.80
2023-08-22T12:31:45.896Z,30.80
2023-08-22T12:34:32.880Z,30.80
2023-08-22T12:37:20.040Z,30.90
2023-08-22T12:40:11.967Z,31.00
2023-08-22T12:42:59.676Z,31.10
2023-08-22T12:45:48.507Z,31.20
2023-08-22T12:48:36.666Z,31.30
2023-08-22T12:51:23.676Z,31.40
2023-08-22T12:54:10.397Z,31.40
2023-08-22T12:56:57.474Z,31.40
2023-08-22T12:59:44.404Z,31.50
2023-08-22T13:02:31.306Z,31.60
2023-08-22T13:05:18.243Z,31.70
2023-08-22T13:08:05.677Z,31.70
2023-08-22T13:10:53.984Z,31.80
2023-08-22T13:13:40.795Z,31.80
2023-08-22T13:16:27.740Z,31.90
2023-08-22T13:19:14.547Z,31.90
2023-08-22T13:22:01.507Z,32.00
2023-08-22T13:24:48.272Z,32.20
2023-08-22T13:27:36.481Z,32.20
2023-08-22T13:30:24.511Z,32.30
2023-08-22T13:33:11.345Z,32.40
2023-08-22T13:35:58.494Z,32.50
2023-08-22T13:38:45.312Z,32.60
2023-08-22T13:41:32.268Z,32.60
2023-08-22T13:44:19.056Z,32.70
2023-08-22T13:47:06.160Z,32.80
2023-08-22T13:49:53.342Z,32.90
2023-08-22T13:52:40.169Z,33.00
2023-08-22T13:55:27.021Z,33.10
2023-08-22T13:58:14.832Z,33.40
2023-08-22T14:01:01.688Z,33.40
2023-08-22T14:03:48.537Z,33.60
2023-08-22T14:06:35.296Z,33.90
2023-08-22T14:12:11.797Z,34.10
2023-08-22T14:14:58.558Z,34.10
2023-08-22T14:17:45.621Z,34.10
2023-08-22T14:20:32.567Z,34.10
2023-08-22T14:23:20.417Z,34.10
2023-08-22T14:26:07.244Z,33.90
2023-08-22T14:28:54.109Z,33.70
2023-08-22T14:31:41.126Z,33.70
2023-08-22T14:34:28.024Z,33.70
2023-08-22T14:37:22.807Z,33.80
2023-08-22T14:40:10.543Z,34.10
2023-08-22T14:42:57.379Z,34.40
2023-08-22T14:45:44.143Z,34.50
2023-08-22T14:48:32.170Z,34.60
2023-08-22T14:51:19.727Z,34.60
2023-08-22T14:54:06.932Z,34.80
2023-08-22T14:56:53.820Z,34.70
2023-08-22T14:59:40.922Z,34.60
2023-08-22T15:02:27.727Z,34.60
2023-08-22T15:05:14.565Z,34.60
2023-08-22T15:08:01.302Z,34.50
2023-08-22T15:10:52.023Z,34.30
2023-08-22T15:13:38.805Z,34.20
2023-08-22T15:16:25.692Z,34.10
2023-08-22T15:19:13.642Z,34.10
2023-08-22T15:22:00.425Z,34.10
2023-08-22T15:24:47.187Z,34.00
2023-08-22T15:27:34.114Z,33.90
2023-08-22T15:30:21.089Z,33.90
2023-08-22T15:33:07.996Z,33.70
2023-08-22T15:35:57.694Z,33.50
2023-08-22T15:38:44.553Z,33.40
2023-08-22T15:41:31.504Z,33.40
2023-08-22T15:44:18.368Z,33.30
2023-08-22T15:47:05.601Z,33.30
2023-08-22T15:49:52.915Z,33.30
2023-08-22T15:52:41.876Z,33.40
2023-08-22T15:55:29.346Z,33.40
2023-08-22T15:58:16.112Z,33.50
2023-08-22T16:01:02.963Z,33.50
2023-08-22T16:03:50.047Z,33.60
2023-08-22T16:06:36.951Z,33.90
2023-08-22T16:09:23.754Z,34.30
2023-08-22T16:12:10.584Z,34.60
2023-08-22T16:14:57.343Z,35.10
2023-08-22T16:17:45.374Z,35.60
2023-08-22T16:20:34.629Z,36.00
2023-08-22T16:23:23.006Z,36.30
2023-08-22T16:26:10.561Z,36.60
2023-08-22T16:28:58.502Z,36.80
2023-08-22T16:31:45.299Z,36.80
2023-08-22T16:34:33.180Z,36.80
2023-08-22T16:37:20.456Z,36.60
2023-08-22T16:40:10.338Z,36.50
2023-08-22T16:42:57.247Z,36.10
2023-08-22T16:45:44.274Z,35.40
2023-08-22T16:48:31.419Z,34.70
2023-08-22T16:51:19.325Z,34.00
2023-08-22T16:54:10.724Z,33.50
2023-08-22T16:56:59.304Z,32.90
2023-08-22T16:59:46.136Z,32.40
2023-08-22T17:02:33.282Z,32.00
2023-08-22T17:05:20.062Z,31.60
2023-08-22T17:08:07.079Z,31.40
2023-08-22T17:11:08.178Z,31.10
2023-08-22T17:13:55.452Z,30.90
2023-08-22T17:16:42.244Z,30.60
2023-08-22T17:19:30.411Z,30.50
2023-08-22T17:22:17.238Z,30.30
2023-08-22T17:25:08.965Z,30.20
2023-08-22T17:27:56.317Z,30.00
2023-08-22T17:30:43.376Z,29.80
2023-08-22T17:33:30.236Z,29.70
2023-08-22T17:36:19.146Z,29.60
2023-08-22T17:39:06.119Z,29.30
2023-08-22T17:41:59.653Z,29.10
2023-08-22T17:44:46.964Z,28.90
2023-08-22T17:47:33.785Z,28.80
2023-08-22T17:50:20.667Z,28.70
2023-08-22T17:53:07.555Z,28.50
2023-08-22T17:55:54.584Z,28.40
2023-08-22T17:58:43.702Z,28.30
2023-08-22T18:01:30.644Z,28.20
2023-08-22T18:04:17.485Z,28.10
2023-08-22T18:07:04.469Z,28.00
2023-08-22T18:09:51.343Z,27.80
2023-08-22T18:12:44.541Z,27.70
2023-08-22T18:15:31.385Z,27.70
2023-08-22T18:18:20.791Z,27.60
2023-08-22T18:21:08.901Z,27.40
2023-08-22T18:23:58.802Z,27.40
2023-08-22T18:26:45.567Z,27.30
2023-08-22T18:29:32.429Z,27.10
2023-08-22T18:32:19.167Z,27.00
2023-08-22T18:35:07.529Z,26.90
2023-08-22T18:37:54.381Z,26.80
2023-08-22T18:40:41.332Z,26.70
2023-08-22T18:43:28.241Z,26.50
2023-08-22T18:46:15.404Z,26.40
2023-08-22T18:49:02.315Z,26.30
2023-08-22T18:51:49.119Z,26.20
2023-08-22T18:54:36.783Z,26.00
2023-08-22T18:57:23.614Z,25.90
2023-08-22T19:00:11.044Z,25.80
2023-08-22T19:02:58.297Z,25.80
2023-08-22T19:05:46.421Z,25.60
2023-08-22T19:08:33.369Z,25.50
2023-08-22T19:11:21.343Z,25.50
2023-08-22T19:14:08.129Z,25.40
2023-08-22T19:16:55.208Z,25.30
2023-08-22T19:19:42.010Z,25.20
2023-08-22T19:22:28.811Z,25.20
2023-08-22T19:25:15.766Z,25.10
2023-08-22T19:28:02.543Z,25.10
2023-08-22T19:30:55.344Z,25.00
2023-08-22T19:33:43.497Z,24.90
2023-08-22T19:36:30.326Z,24.80
2023-08-22T19:39:17.100Z,24.80
2023-08-22T19:42:04.119Z,24.60
2023-08-22T19:44:57.132Z,24.60
2023-08-22T19:47:44.223Z,24.50
2023-08-22T19:50:32.347Z,24.40
2023-08-22T19:53:19.170Z,24.40
2023-08-22T19:56:06.064Z,24.30
2023-08-22T19:58:52.869Z,24.30
2023-08-22T20:01:40.167Z,24.20
2023-08-22T20:04:27.104Z,24.10
2023-08-22T20:07:13.975Z,24.10
2023-08-22T20:10:00.829Z,24.00
2023-08-22T20:12:49.592Z,24.00
2023-08-22T20:15:36.507Z,24.00
2023-08-22T20:18:23.288Z,23.90
2023-08-22T20:21:10.139Z,23.80
2023-08-22T20:23:56.956Z,23.80
2023-08-22T20:26:43.870Z,23.70
2023-08-22T20:29:30.919Z,23.60
2023-08-22T20:32:17.761Z,23.60
2023-08-22T20:35:04.856Z,23.50
2023-08-22T20:37:51.727Z,23.50
2023-08-22T20:40:40.350Z,23.40
2023-08-22T20:43:56.707Z,23.40
2023-08-22T20:46:43.655Z,23.30
2023-08-22T20:49:31.543Z,23.30
2023-08-22T20:52:18.370Z,23.30
2023-08-22T20:55:06.428Z,23.20
2023-08-22T20:57:53.195Z,23.20
2023-08-22T21:00:40.034Z,23.20
2023-08-22T21:03:27.021Z,23.10
2023-08-22T21:06:14.506Z,23.00
2023-08-22T21:09:01.297Z,23.00
2023-08-22T21:11:49.202Z,22.90
2023-08-22T21:14:35.955Z,22.90
2023-08-22T21:17:22.905Z,22.80
2023-08-22T21:20:12.759Z,22.80
2023-08-22T21:22:59.922Z,22.70
2023-08-22T21:25:46.694Z,22.70
2023-08-22T21:28:33.895Z,22.60
2023-08-22T21:31:20.717Z,22.60
2023-08-22T21:34:07.618Z,22.60
2023-08-22T21:36:54.446Z,22.50
2023-08-22T21:39:41.351Z,22.50
2023-08-22T21:42:28.163Z,22.50
2023-08-22T21:45:15.182Z,22.50
2023-08-22T21:48:02.097Z,22.50
2023-08-22T21:50:48.970Z,22.40
2023-08-22T21:53:35.773Z,22.40
2023-08-22T21:56:22.727Z,22.30
2023-08-22T21:59:09.549Z,22.30
2023-08-22T22:01:56.422Z,22.30
2023-08-22T22:04:43.212Z,22.20
2023-08-22T22:07:30.151Z,22.20
2023-08-22T22:10:16.952Z,22.20
2023-08-22T22:13:03.929Z,22.10
2023-08-22T22:15:50.899Z,22.00
2023-08-22T22:18:37.861Z,22.00
2023-08-22T22:21:24.802Z,22.00
2023-08-22T22:24:11.617Z,22.00
2023-08-22T22:26:58.406Z,21.90
2023-08-22T22:32:45.949Z,22.00
2023-08-22T22:35:32.728Z,22.00
2023-08-22T22:38:20.334Z,21.90
2023-08-22T22:41:07.231Z,21.80
2023-08-22T22:43:55.107Z,21.80
2023-08-22T22:46:41.897Z,21.80
2023-08-22T22:49:28.790Z,21.70
2023-08-22T22:52:15.542Z,21.70
2023-08-22T22:55:02.447Z,21.60
2023-08-22T22:57:49.431Z,21.50
2023-08-22T23:00:36.288Z,21.50
2023-08-22T23:03:23.763Z,21.50
2023-08-22T23:06:10.846Z,21.50
2023-08-22T23:08:57.641Z,21.40
2023-08-22T23:11:55.524Z,21.40
2023-08-22T23:14:52.273Z,21.40
2023-08-22T23:17:45.428Z,21.40
2023-08-22T23:20:32.756Z,21.30
2023-08-22T23:23:19.796Z,21.30
2023-08-22T23:26:06.631Z,21.20
2023-08-22T23:28:53.400Z,21.20
2023-08-22T23:31:42.580Z,21.20
2023-08-22T23:34:31.065Z,21.10
2023-08-22T23:37:18.022Z,21.10
2023-08-22T23:40:21.450Z,21.00
2023-08-22T23:43:08.381Z,21.10
2023-08-22T23:45:55.184Z,21.00
2023-08-22T23:48:43.474Z,21.00
2023-08-22T23:51:30.250Z,21.00
2023-08-22T23:54:18.175Z,20.90
2023-08-22T23:57:05.447Z,20.90
2023-08-22T23:59:52.281Z,20.90
